createdAt,value
2018-07-08T00:00:16.889Z,73.7
2018-07-08T00:01:17.001Z,73.9
2018-07-08T00:02:16.275Z,73.9
2018-07-08T00:03:16.548Z,74.4
2018-07-08T00:04:16.857Z,72.9
2018-07-08T00:05:17.128Z,73.4
2018-07-08T00:06:16.450Z,73.5
2018-07-08T00:07:16.765Z,73.9
2018-07-08T00:08:17.070Z,73.5
2018-07-08T00:09:16.389Z,73.1
2018-07-08T00:10:16.666Z,73.4
2018-07-08T00:11:16.735Z,73.4
2018-07-08T00:12:17.003Z,73.7
2018-07-08T00:13:16.263Z,74.0
2018-07-08T00:14:16.532Z,73.6
2018-07-08T00:15:16.799Z,73.5
2018-07-08T00:16:17.059Z,73.9
2018-07-08T00:17:16.346Z,73.8
2018-07-08T00:18:16.605Z,74.3
2018-07-08T00:19:16.872Z,74.4
2018-07-08T00:20:17.142Z,74.4
2018-07-08T00:21:17.174Z,73.9
2018-07-08T00:22:16.436Z,74.3
2018-07-08T00:23:16.694Z,73.9
2018-07-08T00:24:16.954Z,74.0
2018-07-08T00:25:17.214Z,74.4
2018-07-08T00:26:16.469Z,74.4
2018-07-08T00:27:16.730Z,74.8
2018-07-08T00:28:16.989Z,75.1
2018-07-08T00:29:16.246Z,75.9
2018-07-08T00:30:16.522Z,76.3
2018-07-08T00:31:16.572Z,75.7
2018-07-08T00:32:16.828Z,75.6
2018-07-08T00:33:17.093Z,75.6
2018-07-08T00:34:16.366Z,76.0
2018-07-08T00:35:16.646Z,75.0
2018-07-08T00:36:16.903Z,75.0
2018-07-08T00:37:17.161Z,75.1
2018-07-08T00:38:16.417Z,75.1
2018-07-08T00:39:16.686Z,74.9
2018-07-08T00:40:16.957Z,74.8
2018-07-08T00:41:16.993Z,74.6
2018-07-08T00:42:16.258Z,74.7
2018-07-08T00:43:16.513Z,74.9
2018-07-08T00:44:16.779Z,75.5
2018-07-08T00:45:17.038Z,75.3
2018-07-08T00:46:16.299Z,75.7
2018-07-08T00:47:16.571Z,75.9
2018-07-08T00:48:16.827Z,76.1
2018-07-08T00:49:17.111Z,76.2
2018-07-08T00:50:16.376Z,76.2
2018-07-08T00:51:16.425Z,75.0
2018-07-08T00:52:16.685Z,76.0
2018-07-08T00:53:16.939Z,76.1
2018-07-08T00:54:17.203Z,75.6
2018-07-08T00:55:16.493Z,76.0
2018-07-08T00:56:16.753Z,76.5
2018-07-08T00:57:17.055Z,75.6
2018-07-08T00:58:16.322Z,75.4
2018-07-08T00:59:16.588Z,75.6
2018-07-08T01:00:16.886Z,75.8
2018-07-08T01:01:16.901Z,76.2
2018-07-08T01:02:17.157Z,76.6
2018-07-08T01:03:16.413Z,76.4
2018-07-08T01:04:16.670Z,76.3
2018-07-08T01:05:16.934Z,76.4
2018-07-08T01:06:17.182Z,76.8
2018-07-08T01:07:16.432Z,77.0
2018-07-08T01:08:16.691Z,76.6
2018-07-08T01:09:16.956Z,76.2
2018-07-08T01:10:17.233Z,76.3
2018-07-08T01:11:17.243Z,76.5
2018-07-08T01:12:16.497Z,76.4
2018-07-08T01:13:16.753Z,76.2
2018-07-08T01:14:17.014Z,76.3
2018-07-08T01:15:16.272Z,77.8
2018-07-08T01:16:16.542Z,76.0
2018-07-08T01:17:16.795Z,75.1
2018-07-08T01:18:17.051Z,74.7
2018-07-08T01:19:16.319Z,74.8
2018-07-08T01:20:16.586Z,74.9
2018-07-08T01:21:16.622Z,75.4
2018-07-08T01:22:16.880Z,75.6
2018-07-08T01:23:17.428Z,74.8
2018-07-08T01:24:16.691Z,74.4
2018-07-08T01:25:16.956Z,74.4
2018-07-08T01:26:17.527Z,74.3
2018-07-08T01:27:16.782Z,74.0
2018-07-08T01:28:17.057Z,74.1
2018-07-08T01:29:16.325Z,73.0
2018-07-08T01:30:16.604Z,73.5
2018-07-08T01:31:16.642Z,74.6
2018-07-08T01:32:16.905Z,74.6
2018-07-08T01:33:17.169Z,75.2
2018-07-08T01:34:16.441Z,75.5
2018-07-08T01:35:16.707Z,75.1
2018-07-08T01:36:16.968Z,75.3
2018-07-08T01:37:17.231Z,75.2
2018-07-08T01:38:16.492Z,75.4
2018-07-08T01:39:16.732Z,75.3
2018-07-08T01:40:16.999Z,75.0
2018-07-08T01:41:17.047Z,75.3
2018-07-08T01:42:16.305Z,75.1
2018-07-08T01:43:16.568Z,74.9
2018-07-08T01:44:16.907Z,75.1
2018-07-08T01:45:17.173Z,75.5
2018-07-08T01:46:16.730Z,75.8
2018-07-08T01:47:16.989Z,75.7
2018-07-08T01:48:16.255Z,75.3
2018-07-08T01:49:16.518Z,75.8
2018-07-08T01:50:16.775Z,75.6
2018-07-08T01:51:16.845Z,75.8
2018-07-08T01:52:17.108Z,75.8
2018-07-08T01:53:16.367Z,75.9
2018-07-08T01:54:16.634Z,76.1
2018-07-08T01:55:16.904Z,76.4
2018-07-08T01:56:17.173Z,76.0
2018-07-08T01:57:16.429Z,76.5
2018-07-08T01:58:16.689Z,75.9
2018-07-08T01:59:16.939Z,76.1
2018-07-08T02:00:17.214Z,76.1
2018-07-08T02:01:16.260Z,76.1
2018-07-08T02:02:16.543Z,76.4
2018-07-08T02:03:16.797Z,75.9
2018-07-08T02:04:17.065Z,76.3
2018-07-08T02:05:16.329Z,76.3
2018-07-08T02:06:16.593Z,76.5
2018-07-08T02:07:16.848Z,76.8
2018-07-08T02:08:17.119Z,76.9
2018-07-08T02:09:16.388Z,77.0
2018-07-08T02:10:16.656Z,77.4
2018-07-08T02:11:16.695Z,77.3
2018-07-08T02:12:16.963Z,77.2
2018-07-08T02:13:17.238Z,77.1
2018-07-08T02:14:16.500Z,77.6
2018-07-08T02:15:16.782Z,77.6
2018-07-08T02:16:17.039Z,77.7
2018-07-08T02:17:16.304Z,77.9
2018-07-08T02:18:16.564Z,77.9
2018-07-08T02:19:16.836Z,78.2
2018-07-08T02:20:17.124Z,78.2
2018-07-08T02:21:17.142Z,78.4
2018-07-08T02:22:16.403Z,78.3
2018-07-08T02:23:16.666Z,78.5
2018-07-08T02:24:16.933Z,78.3
2018-07-08T02:25:17.201Z,78.2
2018-07-08T02:26:16.468Z,78.3
2018-07-08T02:27:16.727Z,78.2
2018-07-08T02:28:16.990Z,78.2
2018-07-08T02:29:16.247Z,78.4
2018-07-08T02:30:16.525Z,78.4
2018-07-08T02:31:16.585Z,78.4
2018-07-08T02:32:16.855Z,78.3
2018-07-08T02:33:17.130Z,78.5
2018-07-08T02:34:16.402Z,78.2
2018-07-08T02:35:16.666Z,78.0
2018-07-08T02:36:16.954Z,78.1
2018-07-08T02:37:17.254Z,78.0
2018-07-08T02:38:16.522Z,77.9
2018-07-08T02:39:16.782Z,78.0
2018-07-08T02:40:17.384Z,78.5
2018-07-08T02:41:17.085Z,78.0
2018-07-08T02:42:16.358Z,78.0
2018-07-08T02:43:16.618Z,77.8
2018-07-08T02:44:16.887Z,77.7
2018-07-08T02:45:17.150Z,77.8
2018-07-08T02:46:16.416Z,78.0
2018-07-08T02:47:16.682Z,78.0
2018-07-08T02:48:16.953Z,78.4
2018-07-08T02:49:17.233Z,78.6
2018-07-08T02:50:16.499Z,78.7
2018-07-08T02:51:16.524Z,78.4
2018-07-08T02:52:16.780Z,78.2
2018-07-08T02:53:17.031Z,78.3
2018-07-08T02:54:16.290Z,78.7
2018-07-08T02:55:16.566Z,78.7
2018-07-08T02:56:16.842Z,79.2
2018-07-08T02:57:17.116Z,79.2
2018-07-08T02:58:16.384Z,79.4
2018-07-08T02:59:16.895Z,79.4
2018-07-08T03:00:17.167Z,79.4
2018-07-08T03:01:17.207Z,79.4
2018-07-08T03:02:16.469Z,79.2
2018-07-08T03:03:16.728Z,79.1
2018-07-08T03:04:17.289Z,79.1
2018-07-08T03:05:16.548Z,79.0
2018-07-08T03:06:16.807Z,79.0
2018-07-08T03:07:17.070Z,78.8
2018-07-08T03:08:16.343Z,78.8
2018-07-08T03:09:16.609Z,78.7
2018-07-08T03:10:16.892Z,78.9
2018-07-08T03:11:16.921Z,78.8
2018-07-08T03:12:17.192Z,78.8
2018-07-08T03:13:16.453Z,79.4
2018-07-08T03:14:16.721Z,79.6
2018-07-08T03:15:16.990Z,79.0
2018-07-08T03:16:16.252Z,78.5
2018-07-08T03:17:16.516Z,79.0
2018-07-08T03:18:16.767Z,79.1
2018-07-08T03:19:17.025Z,79.5
2018-07-08T03:20:16.293Z,79.5
2018-07-08T03:21:16.339Z,79.5
2018-07-08T03:22:16.596Z,79.1
2018-07-08T03:23:16.863Z,79.1
2018-07-08T03:24:17.132Z,79.1
2018-07-08T03:25:16.475Z,78.9
2018-07-08T03:26:16.733Z,78.8
2018-07-08T03:27:17.013Z,78.2
2018-07-08T03:28:16.276Z,78.6
2018-07-08T03:29:16.550Z,78.8
2018-07-08T03:30:16.809Z,78.6
2018-07-08T03:31:16.860Z,78.8
2018-07-08T03:32:17.123Z,78.8
2018-07-08T03:33:16.382Z,79.1
2018-07-08T03:34:16.646Z,79.5
2018-07-08T03:35:16.920Z,79.2
2018-07-08T03:36:17.485Z,79.4
2018-07-08T03:37:16.752Z,79.4
2018-07-08T03:38:17.025Z,79.4
2018-07-08T03:39:16.278Z,79.1
2018-07-08T03:40:16.544Z,79.0
2018-07-08T03:41:16.591Z,79.2
2018-07-08T03:42:16.850Z,79.2
2018-07-08T03:43:17.114Z,78.9
2018-07-08T03:44:16.379Z,79.0
2018-07-08T03:45:16.636Z,79.2
2018-07-08T03:46:16.893Z,79.2
2018-07-08T03:47:17.164Z,79.3
2018-07-08T03:48:16.419Z,79.0
2018-07-08T03:49:16.681Z,78.8
2018-07-08T03:50:16.943Z,78.7
2018-07-08T03:51:16.983Z,78.7
2018-07-08T03:52:17.238Z,78.6
2018-07-08T03:53:16.506Z,78.2
2018-07-08T03:54:16.766Z,79.0
2018-07-08T03:55:17.025Z,78.5
2018-07-08T03:56:16.290Z,78.6
2018-07-08T03:57:16.558Z,78.8
2018-07-08T03:58:16.820Z,79.1
2018-07-08T03:59:17.084Z,78.8
2018-07-08T04:00:16.358Z,78.8
2018-07-08T04:01:16.405Z,78.5
2018-07-08T04:02:16.668Z,78.3
2018-07-08T04:03:16.927Z,78.0
2018-07-08T04:04:17.186Z,77.6
2018-07-08T04:05:16.449Z,78.0
2018-07-08T04:06:16.706Z,77.0
2018-07-08T04:07:16.959Z,77.2
2018-07-08T04:08:17.219Z,77.3
2018-07-08T04:09:16.475Z,77.4
2018-07-08T04:10:16.742Z,77.2
2018-07-08T04:11:16.777Z,77.3
2018-07-08T04:12:17.028Z,77.3
2018-07-08T04:13:16.284Z,77.0
2018-07-08T04:14:16.551Z,77.0
2018-07-08T04:15:16.871Z,77.0
2018-07-08T04:16:17.138Z,76.8
2018-07-08T04:17:16.395Z,76.9
2018-07-08T04:18:16.659Z,76.6
2018-07-08T04:19:16.919Z,76.4
2018-07-08T04:20:17.185Z,76.5
2018-07-08T04:21:17.227Z,76.0
2018-07-08T04:22:16.495Z,75.9
2018-07-08T04:23:16.755Z,75.8
2018-07-08T04:24:17.028Z,75.4
2018-07-08T04:25:16.295Z,75.2
2018-07-08T04:26:16.572Z,75.1
2018-07-08T04:27:16.844Z,75.2
2018-07-08T04:28:17.109Z,74.9
2018-07-08T04:29:16.415Z,74.7
2018-07-08T04:30:16.733Z,74.7
2018-07-08T04:31:16.718Z,74.5
2018-07-08T04:32:16.975Z,74.1
2018-07-08T04:33:17.228Z,74.0
2018-07-08T04:34:16.487Z,73.8
2018-07-08T04:35:16.745Z,73.9
2018-07-08T04:36:17.009Z,74.1
2018-07-08T04:37:16.270Z,73.9
2018-07-08T04:38:16.532Z,74.1
2018-07-08T04:39:16.800Z,73.6
2018-07-08T04:40:17.070Z,73.5
2018-07-08T04:41:17.110Z,73.3
2018-07-08T04:42:16.374Z,73.6
2018-07-08T04:43:16.643Z,73.5
2018-07-08T04:44:16.904Z,73.2
2018-07-08T04:45:17.184Z,74.0
2018-07-08T04:46:16.437Z,73.2
2018-07-08T04:47:16.695Z,73.0
2018-07-08T04:48:16.951Z,73.5
2018-07-08T04:49:17.357Z,72.8
2018-07-08T04:50:16.682Z,72.9
2018-07-08T04:51:16.722Z,72.9
2018-07-08T04:52:16.974Z,72.6
2018-07-08T04:53:17.233Z,73.1
2018-07-08T04:54:16.497Z,72.5
2018-07-08T04:55:16.761Z,72.6
2018-07-08T04:56:17.017Z,72.8
2018-07-08T04:57:16.273Z,73.3
2018-07-08T04:58:16.526Z,72.2
2018-07-08T04:59:16.789Z,72.1
2018-07-08T05:00:17.064Z,72.6
2018-07-08T05:01:17.113Z,72.5
2018-07-08T05:02:16.376Z,72.1
2018-07-08T05:03:16.635Z,72.2
2018-07-08T05:04:16.896Z,71.9
2018-07-08T05:05:17.161Z,71.2
2018-07-08T05:06:16.425Z,70.8
2018-07-08T05:07:16.690Z,70.6
2018-07-08T05:08:16.959Z,70.4
2018-07-08T05:09:17.215Z,69.5
2018-07-08T05:10:16.478Z,69.0
2018-07-08T05:11:16.523Z,68.7
2018-07-08T05:12:16.782Z,68.5
2018-07-08T05:13:17.051Z,68.9
2018-07-08T05:14:16.308Z,69.2
2018-07-08T05:15:16.569Z,69.2
2018-07-08T05:16:16.832Z,68.3
2018-07-08T05:17:17.432Z,67.4
2018-07-08T05:18:16.689Z,65.6
2018-07-08T05:19:16.955Z,65.2
2018-07-08T05:20:17.262Z,66.6
2018-07-08T05:21:16.286Z,66.1
2018-07-08T05:22:16.560Z,65.0
2018-07-08T05:23:16.821Z,64.4
2018-07-08T05:24:17.076Z,64.4
2018-07-08T05:25:16.333Z,64.6
2018-07-08T05:26:16.597Z,63.2
2018-07-08T05:27:16.860Z,63.4
2018-07-08T05:28:17.121Z,63.7
2018-07-08T05:29:16.386Z,62.5
2018-07-08T05:30:16.668Z,62.3
2018-07-08T05:31:16.687Z,61.7
2018-07-08T05:32:16.960Z,61.1
2018-07-08T05:33:17.227Z,60.8
2018-07-08T05:34:16.480Z,61.9
2018-07-08T05:35:16.757Z,61.3
2018-07-08T05:36:17.032Z,61.0
2018-07-08T05:37:16.289Z,59.9
2018-07-08T05:38:16.547Z,59.7
2018-07-08T05:39:16.807Z,58.8
2018-07-08T05:40:17.082Z,58.3
2018-07-08T05:41:17.128Z,58.6
2018-07-08T05:42:16.384Z,58.0
2018-07-08T05:43:16.647Z,57.4
2018-07-08T05:44:16.911Z,57.0
2018-07-08T05:45:17.176Z,57.8
2018-07-08T05:46:16.435Z,57.7
2018-07-08T05:47:16.693Z,54.9
2018-07-08T05:48:16.962Z,55.1
2018-07-08T05:49:17.224Z,54.2
2018-07-08T05:50:16.631Z,53.3
2018-07-08T05:51:16.540Z,52.8
2018-07-08T05:52:16.804Z,52.1
2018-07-08T05:53:17.062Z,54.2
2018-07-08T05:54:16.332Z,55.0
2018-07-08T05:55:16.608Z,54.3
2018-07-08T05:56:16.873Z,54.8
2018-07-08T05:57:17.684Z,54.8
2018-07-08T05:58:16.954Z,54.3
2018-07-08T05:59:17.216Z,53.3
2018-07-08T06:00:16.489Z,52.6
2018-07-08T06:01:16.522Z,52.6
2018-07-08T06:02:16.782Z,52.3
2018-07-08T06:03:17.066Z,51.8
2018-07-08T06:04:16.328Z,51.7
2018-07-08T06:05:16.597Z,50.9
2018-07-08T06:06:16.866Z,50.0
2018-07-08T06:07:17.126Z,50.4
2018-07-08T06:08:16.390Z,51.2
2018-07-08T06:09:16.640Z,51.6
2018-07-08T06:10:16.908Z,51.4
2018-07-08T06:11:16.949Z,52.2
2018-07-08T06:12:17.215Z,50.9
2018-07-08T06:13:16.473Z,52.3
2018-07-08T06:14:16.736Z,51.5
2018-07-08T06:15:17.106Z,51.4
2018-07-08T06:16:16.381Z,51.5
2018-07-08T06:17:16.647Z,51.8
2018-07-08T06:18:16.910Z,51.6
2018-07-08T06:19:17.170Z,51.3
2018-07-08T06:20:16.448Z,52.5
2018-07-08T06:21:16.465Z,52.0
2018-07-08T06:22:16.748Z,52.5
2018-07-08T06:23:17.000Z,52.3
2018-07-08T06:24:16.257Z,52.9
2018-07-08T06:25:16.537Z,54.4
2018-07-08T06:26:16.860Z,53.7
2018-07-08T06:27:17.122Z,52.6
2018-07-08T06:28:16.379Z,51.7
2018-07-08T06:29:16.640Z,51.9
2018-07-08T06:30:16.919Z,52.1
2018-07-08T06:31:16.953Z,52.3
2018-07-08T06:32:17.208Z,51.4
2018-07-08T06:33:16.464Z,52.1
2018-07-08T06:34:16.718Z,51.6
2018-07-08T06:35:16.986Z,50.9
2018-07-08T06:36:17.247Z,51.6
2018-07-08T06:37:16.517Z,51.4
2018-07-08T06:38:16.781Z,51.3
2018-07-08T06:39:17.131Z,51.0
2018-07-08T06:40:16.479Z,51.6
2018-07-08T06:41:16.526Z,51.3
2018-07-08T06:42:16.790Z,51.2
2018-07-08T06:43:17.156Z,52.2
2018-07-08T06:44:16.416Z,51.5
2018-07-08T06:45:16.675Z,51.7
2018-07-08T06:46:16.932Z,51.1
2018-07-08T06:47:17.190Z,50.8
2018-07-08T06:48:16.465Z,51.8
2018-07-08T06:49:16.720Z,50.2
2018-07-08T06:50:16.993Z,50.1
2018-07-08T06:51:17.020Z,50.3
2018-07-08T06:52:16.277Z,50.8
2018-07-08T06:53:16.545Z,50.5
2018-07-08T06:54:16.811Z,50.5
2018-07-08T06:55:17.073Z,49.1
2018-07-08T06:56:16.342Z,49.8
2018-07-08T06:57:16.609Z,48.5
2018-07-08T06:58:16.869Z,46.7
2018-07-08T06:59:17.138Z,46.1
2018-07-08T07:00:16.427Z,45.5
2018-07-08T07:01:16.455Z,44.3
2018-07-08T07:02:16.718Z,44.5
2018-07-08T07:03:16.982Z,43.9
2018-07-08T07:04:17.238Z,42.8
2018-07-08T07:05:16.502Z,41.4
2018-07-08T07:06:16.764Z,41.9
2018-07-08T07:07:17.028Z,40.5
2018-07-08T07:08:16.286Z,41.6
2018-07-08T07:09:16.537Z,42.1
2018-07-08T07:10:16.807Z,42.4
2018-07-08T07:11:16.849Z,41.6
2018-07-08T07:12:17.122Z,41.6
2018-07-08T07:13:16.386Z,41.1
2018-07-08T07:14:16.644Z,40.6
2018-07-08T07:15:17.120Z,39.0
2018-07-08T07:16:16.380Z,38.5
2018-07-08T07:17:16.642Z,40.1
2018-07-08T07:18:16.903Z,38.3
2018-07-08T07:19:17.160Z,38.4
2018-07-08T07:20:16.426Z,38.4
2018-07-08T07:21:16.478Z,38.9
2018-07-08T07:22:16.736Z,39.8
2018-07-08T07:23:16.999Z,39.6
2018-07-08T07:24:16.258Z,39.4
2018-07-08T07:25:16.531Z,38.8
2018-07-08T07:26:16.784Z,39.3
2018-07-08T07:27:17.044Z,37.9
2018-07-08T07:28:16.303Z,37.4
2018-07-08T07:29:16.572Z,36.2
2018-07-08T07:30:16.847Z,35.9
2018-07-08T07:31:16.892Z,35.9
2018-07-08T07:32:17.145Z,35.3
2018-07-08T07:33:16.404Z,35.4
2018-07-08T07:34:16.668Z,35.3
2018-07-08T07:35:16.931Z,35.6
2018-07-08T07:36:17.191Z,33.4
2018-07-08T07:37:16.517Z,34.8
2018-07-08T07:38:16.798Z,33.7
2018-07-08T07:39:17.076Z,34.1
2018-07-08T07:40:16.351Z,33.0
2018-07-08T07:41:16.374Z,33.7
2018-07-08T07:42:16.628Z,33.3
2018-07-08T07:43:16.894Z,32.8
2018-07-08T07:44:17.150Z,33.1
2018-07-08T07:45:16.411Z,32.0
2018-07-08T07:46:16.687Z,31.4
2018-07-08T07:47:16.956Z,32.5
2018-07-08T07:48:17.217Z,31.6
2018-07-08T07:49:16.479Z,32.1
2018-07-08T07:50:16.743Z,33.1
2018-07-08T07:51:16.842Z,31.6
2018-07-08T07:52:17.104Z,32.6
2018-07-08T07:53:16.373Z,32.2
2018-07-08T07:54:16.646Z,31.2
2018-07-08T07:55:16.906Z,30.1
2018-07-08T07:56:17.172Z,30.3
2018-07-08T07:57:16.420Z,29.7
2018-07-08T07:58:16.688Z,29.6
2018-07-08T07:59:16.945Z,29.9
2018-07-08T08:00:17.233Z,29.6
2018-07-08T08:01:16.254Z,29.3
2018-07-08T08:02:16.530Z,28.1
2018-07-08T08:03:16.799Z,29.6
2018-07-08T08:04:17.054Z,29.7
2018-07-08T08:05:16.292Z,28.1
2018-07-08T08:06:16.551Z,28.0
2018-07-08T08:07:16.811Z,29.8
2018-07-08T08:08:17.076Z,29.3
2018-07-08T08:09:16.345Z,29.6
2018-07-08T08:10:16.607Z,28.8
2018-07-08T08:11:16.657Z,29.0
2018-07-08T08:12:16.920Z,28.7
2018-07-08T08:13:17.183Z,27.5
2018-07-08T08:14:16.449Z,28.0
2018-07-08T08:15:16.715Z,28.4
2018-07-08T08:16:16.968Z,28.0
2018-07-08T08:17:17.228Z,26.3
2018-07-08T08:18:16.486Z,27.2
2018-07-08T08:19:16.748Z,26.5
2018-07-08T08:20:17.033Z,27.4
2018-07-08T08:21:17.055Z,26.7
2018-07-08T08:22:16.328Z,26.0
2018-07-08T08:23:16.597Z,26.7
2018-07-08T08:24:16.862Z,27.2
2018-07-08T08:25:17.126Z,26.8
2018-07-08T08:26:16.417Z,25.8
2018-07-08T08:27:16.689Z,24.8
2018-07-08T08:28:16.939Z,24.6
2018-07-08T08:29:17.220Z,25.2
2018-07-08T08:30:16.489Z,25.4
2018-07-08T08:31:16.531Z,24.3
2018-07-08T08:32:16.793Z,24.1
2018-07-08T08:33:17.052Z,24.5
2018-07-08T08:34:16.307Z,23.6
2018-07-08T08:35:16.569Z,23.3
2018-07-08T08:36:16.824Z,24.9
2018-07-08T08:37:17.090Z,22.5
2018-07-08T08:38:16.543Z,24.3
2018-07-08T08:39:16.815Z,23.2
2018-07-08T08:40:17.086Z,23.8
2018-07-08T08:41:17.133Z,23.7
2018-07-08T08:42:16.403Z,25.0
2018-07-08T08:43:16.666Z,23.2
2018-07-08T08:44:16.931Z,20.7
2018-07-08T08:45:17.190Z,21.7
2018-07-08T08:46:16.453Z,21.6
2018-07-08T08:47:16.716Z,22.1
2018-07-08T08:48:16.987Z,22.4
2018-07-08T08:49:17.245Z,22.3
2018-07-08T08:50:16.516Z,24.9
2018-07-08T08:51:16.560Z,23.5
2018-07-08T08:52:16.820Z,23.6
2018-07-08T08:53:17.079Z,23.8
2018-07-08T08:54:16.350Z,22.9
2018-07-08T08:55:16.610Z,22.8
2018-07-08T08:56:16.879Z,22.2
2018-07-08T08:57:17.150Z,25.6
2018-07-08T08:58:16.454Z,28.4
2018-07-08T08:59:16.721Z,25.8
2018-07-08T09:00:17.000Z,24.8
2018-07-08T09:01:17.042Z,28.3
2018-07-08T09:02:16.309Z,28.9
2018-07-08T09:03:16.561Z,29.0
2018-07-08T09:04:16.821Z,29.2
2018-07-08T09:05:17.086Z,29.1
2018-07-08T09:06:16.346Z,28.5
2018-07-08T09:07:16.643Z,27.4
2018-07-08T09:08:16.905Z,25.4
2018-07-08T09:09:17.167Z,26.3
2018-07-08T09:10:16.439Z,29.6
2018-07-08T09:11:16.478Z,28.1
2018-07-08T09:12:16.747Z,26.7
2018-07-08T09:13:17.000Z,26.7
2018-07-08T09:14:16.273Z,28.3
2018-07-08T09:15:16.554Z,28.0
2018-07-08T09:16:16.812Z,27.6
2018-07-08T09:17:17.178Z,27.5
2018-07-08T09:18:16.433Z,26.7
2018-07-08T09:19:16.704Z,24.0
2018-07-08T09:20:16.989Z,23.6
2018-07-08T09:21:17.011Z,23.5
2018-07-08T09:22:16.268Z,24.2
2018-07-08T09:23:16.533Z,23.2
2018-07-08T09:24:16.802Z,23.5
2018-07-08T09:25:17.076Z,22.0
2018-07-08T09:26:16.343Z,23.7
2018-07-08T09:27:16.596Z,25.6
2018-07-08T09:28:16.858Z,25.5
2018-07-08T09:29:17.180Z,24.2
2018-07-08T09:30:16.464Z,22.7
2018-07-08T09:31:16.499Z,19.3
2018-07-08T09:32:16.763Z,19.3
2018-07-08T09:33:17.036Z,20.4
2018-07-08T09:34:16.288Z,18.9
2018-07-08T09:35:16.575Z,17.7
2018-07-08T09:36:16.845Z,17.6
2018-07-08T09:37:17.102Z,17.0
2018-07-08T09:38:16.349Z,17.0
2018-07-08T09:39:16.992Z,17.7
2018-07-08T09:40:16.315Z,16.1
2018-07-08T09:41:16.331Z,17.9
2018-07-08T09:42:16.598Z,19.5
2018-07-08T09:43:16.865Z,18.8
2018-07-08T09:44:17.138Z,17.8
2018-07-08T09:45:16.404Z,16.6
2018-07-08T09:46:16.669Z,16.5
2018-07-08T09:47:16.931Z,16.6
2018-07-08T09:48:17.196Z,16.5
2018-07-08T09:49:16.493Z,15.2
2018-07-08T09:50:16.755Z,15.4
2018-07-08T09:51:16.893Z,15.8
2018-07-08T09:52:17.157Z,15.9
2018-07-08T09:53:16.421Z,14.5
2018-07-08T09:54:16.679Z,14.4
2018-07-08T09:55:16.944Z,17.9
2018-07-08T09:56:17.262Z,18.5
2018-07-08T09:57:16.533Z,19.0
2018-07-08T09:58:16.797Z,19.1
2018-07-08T09:59:17.061Z,17.3
2018-07-08T10:00:16.334Z,16.8
2018-07-08T10:01:16.363Z,15.6
2018-07-08T10:02:16.626Z,16.0
2018-07-08T10:03:16.885Z,15.6
2018-07-08T10:04:17.150Z,15.5
2018-07-08T10:05:16.405Z,15.7
2018-07-08T10:06:16.660Z,16.5
2018-07-08T10:07:16.917Z,14.7
2018-07-08T10:08:17.182Z,15.0
2018-07-08T10:09:16.441Z,15.3
2018-07-08T10:10:16.722Z,15.6
2018-07-08T10:11:16.745Z,15.1
2018-07-08T10:12:17.024Z,16.7
2018-07-08T10:13:16.316Z,17.7
2018-07-08T10:14:16.582Z,18.0
2018-07-08T10:15:16.853Z,19.1
2018-07-08T10:16:17.244Z,19.2
2018-07-08T10:17:16.513Z,16.6
2018-07-08T10:18:16.790Z,16.0
2018-07-08T10:19:17.137Z,15.6
2018-07-08T10:20:16.445Z,17.5
2018-07-08T10:21:16.495Z,18.4
2018-07-08T10:22:16.750Z,17.5
2018-07-08T10:23:17.017Z,16.7
2018-07-08T10:24:16.278Z,17.6
2018-07-08T10:25:16.575Z,16.3
2018-07-08T10:26:16.844Z,17.0
2018-07-08T10:27:17.099Z,15.2
2018-07-08T10:28:16.356Z,15.4
2018-07-08T10:29:16.617Z,15.7
2018-07-08T10:30:16.957Z,15.3
2018-07-08T10:31:16.931Z,16.1
2018-07-08T10:32:17.198Z,15.0
2018-07-08T10:33:16.463Z,15.2
2018-07-08T10:34:16.740Z,16.0
2018-07-08T10:35:17.008Z,16.2
2018-07-08T10:36:16.275Z,15.5
2018-07-08T10:37:16.536Z,15.7
2018-07-08T10:38:16.993Z,15.2
2018-07-08T10:39:16.277Z,15.8
2018-07-08T10:40:16.557Z,17.1
2018-07-08T10:41:16.604Z,15.8
2018-07-08T10:42:16.877Z,15.9
2018-07-08T10:43:17.191Z,16.1
2018-07-08T10:44:16.452Z,16.6
2018-07-08T10:45:16.714Z,15.8
2018-07-08T10:46:16.968Z,16.5
2018-07-08T10:47:17.232Z,18.2
2018-07-08T10:48:16.505Z,16.3
2018-07-08T10:49:16.776Z,15.1
2018-07-08T10:50:17.047Z,16.9
2018-07-08T10:51:17.068Z,14.6
2018-07-08T10:52:16.322Z,13.4
2018-07-08T10:53:16.578Z,13.8
2018-07-08T10:54:16.836Z,14.3
2018-07-08T10:55:17.225Z,13.8
2018-07-08T10:56:16.501Z,12.9
2018-07-08T10:57:16.763Z,12.6
2018-07-08T10:58:17.025Z,12.3
2018-07-08T10:59:16.285Z,12.8
2018-07-08T11:00:16.552Z,12.2
2018-07-08T11:01:16.617Z,11.2
2018-07-08T11:02:16.884Z,11.9
2018-07-08T11:03:17.153Z,13.1
2018-07-08T11:04:16.406Z,14.4
2018-07-08T11:05:16.679Z,13.3
2018-07-08T11:06:16.956Z,12.1
2018-07-08T11:07:17.226Z,12.3
2018-07-08T11:08:16.493Z,12.2
2018-07-08T11:09:16.755Z,13.0
2018-07-08T11:10:17.045Z,12.7
2018-07-08T11:11:17.327Z,13.3
2018-07-08T11:12:16.589Z,13.5
2018-07-08T11:13:16.842Z,12.7
2018-07-08T11:14:17.107Z,14.9
2018-07-08T11:15:16.367Z,13.2
2018-07-08T11:16:16.618Z,13.1
2018-07-08T11:17:16.887Z,11.6
2018-07-08T11:18:17.148Z,12.1
2018-07-08T11:19:16.404Z,12.7
2018-07-08T11:20:16.667Z,12.5
2018-07-08T11:21:16.714Z,12.4
2018-07-08T11:22:16.972Z,12.5
2018-07-08T11:23:17.232Z,12.0
2018-07-08T11:24:16.494Z,12.2
2018-07-08T11:25:16.762Z,12.0
2018-07-08T11:26:17.015Z,11.8
2018-07-08T11:27:16.268Z,11.3
2018-07-08T11:28:16.526Z,12.2
2018-07-08T11:29:16.788Z,12.8
2018-07-08T11:30:17.064Z,12.4
2018-07-08T11:31:17.086Z,12.4
2018-07-08T11:32:16.349Z,12.8
2018-07-08T11:33:16.614Z,12.7
2018-07-08T11:34:16.873Z,14.4
2018-07-08T11:35:17.127Z,13.2
2018-07-08T11:36:16.378Z,13.2
2018-07-08T11:37:16.644Z,13.2
2018-07-08T11:38:16.905Z,13.7
2018-07-08T11:39:17.182Z,13.8
2018-07-08T11:40:16.442Z,13.9
2018-07-08T11:41:16.497Z,13.4
2018-07-08T11:42:16.761Z,14.0
2018-07-08T11:43:17.019Z,14.4
2018-07-08T11:44:16.281Z,16.2
2018-07-08T11:45:16.561Z,15.4
2018-07-08T11:46:16.818Z,15.5
2018-07-08T11:47:17.084Z,15.4
2018-07-08T11:48:16.344Z,16.0
2018-07-08T11:49:16.607Z,16.0
2018-07-08T11:50:16.885Z,15.9
2018-07-08T11:51:16.920Z,16.4
2018-07-08T11:52:17.193Z,16.7
2018-07-08T11:53:16.458Z,15.9
2018-07-08T11:54:16.730Z,16.2
2018-07-08T11:55:17.031Z,16.8
2018-07-08T11:56:16.294Z,16.9
2018-07-08T11:57:16.554Z,18.0
2018-07-08T11:58:16.817Z,17.3
2018-07-08T11:59:17.070Z,17.5
2018-07-08T12:00:16.344Z,18.0
2018-07-08T12:01:16.389Z,18.6
2018-07-08T12:02:16.645Z,19.3
2018-07-08T12:03:16.908Z,19.3
2018-07-08T12:04:17.175Z,19.3
2018-07-08T12:05:16.459Z,19.3
2018-07-08T12:06:16.738Z,19.3
2018-07-08T12:07:17.012Z,20.7
2018-07-08T12:08:16.269Z,21.0
2018-07-08T12:09:16.526Z,21.6
2018-07-08T12:10:16.798Z,21.0
2018-07-08T12:11:16.837Z,20.1
2018-07-08T12:12:17.100Z,21.0
2018-07-08T12:13:16.356Z,21.6
2018-07-08T12:14:16.624Z,21.0
2018-07-08T12:15:16.884Z,21.3
2018-07-08T12:16:17.143Z,21.6
2018-07-08T12:17:16.416Z,22.2
2018-07-08T12:18:16.692Z,22.1
2018-07-08T12:19:16.954Z,21.5
2018-07-08T12:20:17.272Z,21.7
2018-07-08T12:21:16.451Z,23.1
2018-07-08T12:22:16.732Z,23.4
2018-07-08T12:23:16.993Z,22.6
2018-07-08T12:24:16.264Z,23.4
2018-07-08T12:25:16.529Z,23.9
2018-07-08T12:26:16.789Z,24.4
2018-07-08T12:27:17.053Z,24.3
2018-07-08T12:28:16.342Z,24.9
2018-07-08T12:29:16.603Z,25.2
2018-07-08T12:30:16.901Z,24.9
2018-07-08T12:31:16.900Z,25.0
2018-07-08T12:32:17.158Z,26.3
2018-07-08T12:33:16.418Z,26.0
2018-07-08T12:34:16.676Z,26.2
2018-07-08T12:35:16.945Z,26.3
2018-07-08T12:36:17.210Z,26.2
2018-07-08T12:37:16.479Z,26.6
2018-07-08T12:38:16.748Z,26.7
2018-07-08T12:39:17.022Z,26.8
2018-07-08T12:40:16.286Z,26.2
2018-07-08T12:41:16.334Z,26.2
2018-07-08T12:42:16.595Z,26.2
2018-07-08T12:43:16.848Z,26.7
2018-07-08T12:44:17.426Z,27.1
2018-07-08T12:45:16.816Z,28.2
2018-07-08T12:46:17.073Z,27.6
2018-07-08T12:47:16.333Z,27.5
2018-07-08T12:48:16.609Z,27.3
2018-07-08T12:49:16.868Z,27.3
2018-07-08T12:50:17.134Z,27.3
2018-07-08T12:51:17.197Z,26.8
2018-07-08T12:52:16.468Z,26.6
2018-07-08T12:53:16.725Z,27.4
2018-07-08T12:54:16.982Z,27.4
2018-07-08T12:55:17.237Z,26.6
2018-07-08T12:56:16.498Z,26.8
2018-07-08T12:57:16.746Z,27.3
2018-07-08T12:58:17.029Z,27.1
2018-07-08T12:59:16.299Z,27.3
2018-07-08T13:00:16.566Z,27.0
2018-07-08T13:01:16.598Z,27.6
2018-07-08T13:02:16.860Z,27.5
2018-07-08T13:03:17.415Z,27.2
2018-07-08T13:04:16.677Z,27.2
2018-07-08T13:05:16.944Z,27.1
2018-07-08T13:06:17.308Z,27.3
2018-07-08T13:07:16.625Z,27.5
2018-07-08T13:08:16.887Z,28.0
2018-07-08T13:09:17.147Z,27.6
2018-07-08T13:10:16.420Z,28.2
2018-07-08T13:11:16.456Z,28.5
2018-07-08T13:12:16.710Z,28.5
2018-07-08T13:13:17.073Z,28.2
2018-07-08T13:14:16.325Z,28.2
2018-07-08T13:15:16.601Z,28.6
2018-07-08T13:16:16.863Z,28.9
2018-07-08T13:17:17.125Z,30.0
2018-07-08T13:18:16.396Z,29.8